sensor_id;sensor_type;location;lat;lon;timestamp;temperature;humidity
27803;DHT22;15182;48.174;11.562;2023-05-23T00:02:24;24.10;77.50
27803;DHT22;15182;48.174;11.562;2023-05-23T00:04:53;24.10;77.60
27803;DHT22;15182;48.174;11.562;2023-05-23T00:07:25;24.10;77.80
27803;DHT22;15182;48.174;11.562;2023-05-23T00:09:52;24.00;78.10
27803;DHT22;15182;48.174;11.562;2023-05-23T00:12:20;24.00;78.00
27803;DHT22;15182;48.174;11.562;2023-05-23T00:14:48;24.00;78.20
27803;DHT22;15182;48.174;11.562;2023-05-23T00:17:18;23.90;78.10
27803;DHT22;15182;48.174;11.562;2023-05-23T00:19:47;23.90;78.20
27803;DHT22;15182;48.174;11.562;2023-05-23T00:22:14;23.90;78.20
27803;DHT22;15182;48.174;11.562;2023-05-23T00:24:44;23.90;78.40
27803;DHT22;15182;48.174;11.562;2023-05-23T00:27:11;23.90;78.70
27803;DHT22;15182;48.174;11.562;2023-05-23T00:29:39;23.90;78.50
27803;DHT22;15182;48.174;11.562;2023-05-23T00:32:07;23.80;78.40
27803;DHT22;15182;48.174;11.562;2023-05-23T00:34:34;23.80;78.50
27803;DHT22;15182;48.174;11.562;2023-05-23T00:37:04;23.80;78.60
27803;DHT22;15182;48.174;11.562;2023-05-23T00:39:31;23.80;78.80
27803;DHT22;15182;48.174;11.562;2023-05-23T00:42:03;23.80;78.80
27803;DHT22;15182;48.174;11.562;2023-05-23T00:44:31;23.80;79.00
27803;DHT22;15182;48.174;11.562;2023-05-23T00:46:59;23.70;78.60
27803;DHT22;15182;48.174;11.562;2023-05-23T00:49:27;23.80;78.80
27803;DHT22;15182;48.174;11.562;2023-05-23T00:51:55;23.70;78.70
27803;DHT22;15182;48.174;11.562;2023-05-23T00:54:25;23.80;78.90
27803;DHT22;15182;48.174;11.562;2023-05-23T00:56:54;23.80;78.90
27803;DHT22;15182;48.174;11.562;2023-05-23T00:59:24;23.80;78.80
27803;DHT22;15182;48.174;11.562;2023-05-23T01:01:54;23.70;78.90
27803;DHT22;15182;48.174;11.562;2023-05-23T01:04:23;23.80;78.90
27803;DHT22;15182;48.174;11.562;2023-05-23T01:06:52;23.80;79.00
27803;DHT22;15182;48.174;11.562;2023-05-23T01:09:21;23.80;78.80
27803;DHT22;15182;48.174;11.562;2023-05-23T01:11:58;23.70;78.80
27803;DHT22;15182;48.174;11.562;2023-05-23T01:14:39;23.70;79.10
27803;DHT22;15182;48.174;11.562;2023-05-23T01:17:14;23.70;79.30
27803;DHT22;15182;48.174;11.562;2023-05-23T01:20:02;23.70;79.30
27803;DHT22;15182;48.174;11.562;2023-05-23T01:22:52;23.70;79.30
27803;DHT22;15182;48.174;11.562;2023-05-23T01:25:43;23.70;79.50
27803;DHT22;15182;48.174;11.562;2023-05-23T01:28:21;23.70;79.50
27803;DHT22;15182;48.174;11.562;2023-05-23T01:30:51;23.60;79.30
27803;DHT22;15182;48.174;11.562;2023-05-23T01:33:20;23.60;79.20
27803;DHT22;15182;48.174;11.562;2023-05-23T01:35:49;23.60;79.40
27803;DHT22;15182;48.174;11.562;2023-05-23T01:38:17;23.60;79.30
27803;DHT22;15182;48.174;11.562;2023-05-23T01:40:45;23.60;79.30
27803;DHT22;15182;48.174;11.562;2023-05-23T01:43:12;23.60;79.30
27803;DHT22;15182;48.174;11.562;2023-05-23T01:45:42;23.60;79.40
27803;DHT22;15182;48.174;11.562;2023-05-23T01:48:11;23.60;79.50
27803;DHT22;15182;48.174;11.562;2023-05-23T01:50:40;23.60;79.60
27803;DHT22;15182;48.174;11.562;2023-05-23T01:53:11;23.50;79.40
27803;DHT22;15182;48.174;11.562;2023-05-23T01:55:41;23.50;79.50
27803;DHT22;15182;48.174;11.562;2023-05-23T01:58:10;23.50;79.60
27803;DHT22;15182;48.174;11.562;2023-05-23T02:00:38;23.50;79.70
27803;DHT22;15182;48.174;11.562;2023-05-23T02:03:07;23.40;79.80
27803;DHT22;15182;48.174;11.562;2023-05-23T02:05:35;23.40;79.90
27803;DHT22;15182;48.174;11.562;2023-05-23T02:08:03;23.40;80.00
27803;DHT22;15182;48.174;11.562;2023-05-23T02:10:31;23.40;80.10
27803;DHT22;15182;48.174;11.562;2023-05-23T02:13:00;23.40;80.20
27803;DHT22;15182;48.174;11.562;2023-05-23T02:15:28;23.30;80.20
27803;DHT22;15182;48.174;11.562;2023-05-23T02:17:57;23.30;80.40
27803;DHT22;15182;48.174;11.562;2023-05-23T02:20:28;23.30;80.50
27803;DHT22;15182;48.174;11.562;2023-05-23T02:22:56;23.30;80.70
27803;DHT22;15182;48.174;11.562;2023-05-23T02:25:24;23.20;80.60
27803;DHT22;15182;48.174;11.562;2023-05-23T02:27:51;23.20;80.80
27803;DHT22;15182;48.174;11.562;2023-05-23T02:30:19;23.20;80.90
27803;DHT22;15182;48.174;11.562;2023-05-23T02:32:49;23.20;80.90
27803;DHT22;15182;48.174;11.562;2023-05-23T02:35:17;23.20;81.00
27803;DHT22;15182;48.174;11.562;2023-05-23T02:37:46;23.20;81.10
27803;DHT22;15182;48.174;11.562;2023-05-23T02:40:14;23.10;81.20
27803;DHT22;15182;48.174;11.562;2023-05-23T02:42:42;23.00;81.20
27803;DHT22;15182;48.174;11.562;2023-05-23T02:45:10;23.00;81.20
27803;DHT22;15182;48.174;11.562;2023-05-23T02:47:38;23.00;81.40
27803;DHT22;15182;48.174;11.562;2023-05-23T02:50:09;22.90;81.60
27803;DHT22;15182;48.174;11.562;2023-05-23T02:52:37;22.90;81.80
27803;DHT22;15182;48.174;11.562;2023-05-23T02:55:07;22.90;82.00
27803;DHT22;15182;48.174;11.562;2023-05-23T02:57:40;22.80;82.20
27803;DHT22;15182;48.174;11.562;2023-05-23T03:00:08;22.80;82.00
27803;DHT22;15182;48.174;11.562;2023-05-23T03:02:38;22.80;82.30
27803;DHT22;15182;48.174;11.562;2023-05-23T03:05:07;22.80;82.50
27803;DHT22;15182;48.174;11.562;2023-05-23T03:07:35;22.80;82.50
27803;DHT22;15182;48.174;11.562;2023-05-23T03:10:03;22.70;82.50
27803;DHT22;15182;48.174;11.562;2023-05-23T03:12:34;22.70;82.80
27803;DHT22;15182;48.174;11.562;2023-05-23T03:15:02;22.70;82.90
27803;DHT22;15182;48.174;11.562;2023-05-23T03:17:31;22.70;83.10
27803;DHT22;15182;48.174;11.562;2023-05-23T03:19:59;22.70;83.00
27803;DHT22;15182;48.174;11.562;2023-05-23T03:22:26;22.60;83.10
27803;DHT22;15182;48.174;11.562;2023-05-23T03:24:54;22.60;83.20
27803;DHT22;15182;48.174;11.562;2023-05-23T03:27:23;22.60;83.30
27803;DHT22;15182;48.174;11.562;2023-05-23T03:29:51;22.60;83.40
27803;DHT22;15182;48.174;11.562;2023-05-23T03:32:18;22.70;83.50
27803;DHT22;15182;48.174;11.562;2023-05-23T03:34:46;22.70;83.50
27803;DHT22;15182;48.174;11.562;2023-05-23T03:37:14;22.70;83.60
27803;DHT22;15182;48.174;11.562;2023-05-23T03:39:41;22.70;83.70
27803;DHT22;15182;48.174;11.562;2023-05-23T03:42:09;22.70;83.70
27803;DHT22;15182;48.174;11.562;2023-05-23T03:44:38;22.60;83.70
27803;DHT22;15182;48.174;11.562;2023-05-23T03:47:06;22.60;84.00
27803;DHT22;15182;48.174;11.562;2023-05-23T03:49:36;22.50;83.90
27803;DHT22;15182;48.174;11.562;2023-05-23T03:52:05;22.50;84.00
27803;DHT22;15182;48.174;11.562;2023-05-23T03:54:33;22.50;84.10
27803;DHT22;15182;48.174;11.562;2023-05-23T03:57:01;22.50;84.20
27803;DHT22;15182;48.174;11.562;2023-05-23T03:59:30;22.40;84.30
27803;DHT22;15182;48.174;11.562;2023-05-23T04:01:59;22.40;84.30
27803;DHT22;15182;48.174;11.562;2023-05-23T04:04:27;22.40;84.60
27803;DHT22;15182;48.174;11.562;2023-05-23T04:06:56;22.30;84.60
27803;DHT22;15182;48.174;11.562;2023-05-23T04:09:24;22.30;84.80
27803;DHT22;15182;48.174;11.562;2023-05-23T04:11:52;22.30;84.80
27803;DHT22;15182;48.174;11.562;2023-05-23T04:14:21;22.20;84.90
27803;DHT22;15182;48.174;11.562;2023-05-23T04:16:51;22.20;85.20
27803;DHT22;15182;48.174;11.562;2023-05-23T04:19:20;22.10;85.40
27803;DHT22;15182;48.174;11.562;2023-05-23T04:21:48;22.10;85.60
27803;DHT22;15182;48.174;11.562;2023-05-23T04:24:17;22.10;85.70
27803;DHT22;15182;48.174;11.562;2023-05-23T04:26:44;22.10;86.00
27803;DHT22;15182;48.174;11.562;2023-05-23T04:29:12;22.00;86.10
27803;DHT22;15182;48.174;11.562;2023-05-23T04:31:41;22.00;86.30
27803;DHT22;15182;48.174;11.562;2023-05-23T04:34:11;22.00;86.40
27803;DHT22;15182;48.174;11.562;2023-05-23T04:36:41;22.00;86.60
27803;DHT22;15182;48.174;11.562;2023-05-23T04:39:09;22.00;87.00
27803;DHT22;15182;48.174;11.562;2023-05-23T04:41:44;21.90;86.90
27803;DHT22;15182;48.174;11.562;2023-05-23T04:44:22;21.90;87.10
27803;DHT22;15182;48.174;11.562;2023-05-23T04:47:06;21.90;87.20
27803;DHT22;15182;48.174;11.562;2023-05-23T04:49:53;21.90;87.30
27803;DHT22;15182;48.174;11.562;2023-05-23T04:52:24;21.90;87.40
27803;DHT22;15182;48.174;11.562;2023-05-23T04:54:53;21.90;87.70
27803;DHT22;15182;48.174;11.562;2023-05-23T04:57:21;21.90;87.70
27803;DHT22;15182;48.174;11.562;2023-05-23T04:59:48;21.90;87.80
27803;DHT22;15182;48.174;11.562;2023-05-23T05:02:17;21.90;88.10
27803;DHT22;15182;48.174;11.562;2023-05-23T05:04:45;21.90;88.20
27803;DHT22;15182;48.174;11.562;2023-05-23T05:07:12;21.90;88.20
27803;DHT22;15182;48.174;11.562;2023-05-23T05:09:43;22.00;88.40
27803;DHT22;15182;48.174;11.562;2023-05-23T05:12:11;22.00;88.60
27803;DHT22;15182;48.174;11.562;2023-05-23T05:14:40;22.00;88.60
27803;DHT22;15182;48.174;11.562;2023-05-23T05:17:08;22.00;88.80
27803;DHT22;15182;48.174;11.562;2023-05-23T05:19:48;22.00;88.90
27803;DHT22;15182;48.174;11.562;2023-05-23T05:22:17;22.00;89.00
27803;DHT22;15182;48.174;11.562;2023-05-23T05:24:46;22.00;89.10
27803;DHT22;15182;48.174;11.562;2023-05-23T05:27:14;22.10;89.30
27803;DHT22;15182;48.174;11.562;2023-05-23T05:29:41;22.10;89.30
27803;DHT22;15182;48.174;11.562;2023-05-23T05:32:09;22.10;89.30
27803;DHT22;15182;48.174;11.562;2023-05-23T05:34:37;22.10;89.30
27803;DHT22;15182;48.174;11.562;2023-05-23T05:37:06;22.10;89.40
27803;DHT22;15182;48.174;11.562;2023-05-23T05:39:33;22.20;89.60
27803;DHT22;15182;48.174;11.562;2023-05-23T05:42:03;22.20;89.70
27803;DHT22;15182;48.174;11.562;2023-05-23T05:44:31;22.20;89.90
27803;DHT22;15182;48.174;11.562;2023-05-23T05:46:59;22.20;89.80
27803;DHT22;15182;48.174;11.562;2023-05-23T05:49:26;22.20;89.90
27803;DHT22;15182;48.174;11.562;2023-05-23T05:51:55;22.20;90.00
27803;DHT22;15182;48.174;11.562;2023-05-23T05:54:23;22.20;90.00
27803;DHT22;15182;48.174;11.562;2023-05-23T05:56:51;22.30;90.00
27803;DHT22;15182;48.174;11.562;2023-05-23T05:59:20;22.30;90.00
27803;DHT22;15182;48.174;11.562;2023-05-23T06:01:48;22.30;90.10
27803;DHT22;15182;48.174;11.562;2023-05-23T06:04:16;22.30;90.00
27803;DHT22;15182;48.174;11.562;2023-05-23T06:06:44;22.30;90.50
27803;DHT22;15182;48.174;11.562;2023-05-23T06:09:12;22.40;90.20
27803;DHT22;15182;48.174;11.562;2023-05-23T06:11:40;22.40;90.20
27803;DHT22;15182;48.174;11.562;2023-05-23T06:14:08;22.40;90.20
27803;DHT22;15182;48.174;11.562;2023-05-23T06:16:40;22.50;90.20
27803;DHT22;15182;48.174;11.562;2023-05-23T06:19:08;22.50;90.30
27803;DHT22;15182;48.174;11.562;2023-05-23T06:21:37;22.50;90.10
27803;DHT22;15182;48.174;11.562;2023-05-23T06:24:07;22.50;90.10
27803;DHT22;15182;48.174;11.562;2023-05-23T06:26:34;22.50;90.20
27803;DHT22;15182;48.174;11.562;2023-05-23T06:29:02;22.50;90.20
27803;DHT22;15182;48.174;11.562;2023-05-23T06:31:30;22.50;90.30
27803;DHT22;15182;48.174;11.562;2023-05-23T06:33:59;22.50;90.40
27803;DHT22;15182;48.174;11.562;2023-05-23T06:36:27;22.50;90.50
27803;DHT22;15182;48.174;11.562;2023-05-23T06:38:55;22.60;90.50
27803;DHT22;15182;48.174;11.562;2023-05-23T06:41:23;22.60;90.60
27803;DHT22;15182;48.174;11.562;2023-05-23T06:43:52;22.70;90.60
27803;DHT22;15182;48.174;11.562;2023-05-23T06:46:24;22.70;90.60
27803;DHT22;15182;48.174;11.562;2023-05-23T06:48:52;22.80;90.60
27803;DHT22;15182;48.174;11.562;2023-05-23T06:51:21;22.80;90.60
27803;DHT22;15182;48.174;11.562;2023-05-23T06:53:49;22.90;90.60
27803;DHT22;15182;48.174;11.562;2023-05-23T06:56:17;23.00;90.60
27803;DHT22;15182;48.174;11.562;2023-05-23T06:58:53;23.10;90.60
27803;DHT22;15182;48.174;11.562;2023-05-23T07:01:21;23.20;90.50
27803;DHT22;15182;48.174;11.562;2023-05-23T07:03:50;23.20;90.40
27803;DHT22;15182;48.174;11.562;2023-05-23T07:06:18;23.20;90.30
27803;DHT22;15182;48.174;11.562;2023-05-23T07:08:48;23.30;90.50
27803;DHT22;15182;48.174;11.562;2023-05-23T07:11:16;23.40;90.40
27803;DHT22;15182;48.174;11.562;2023-05-23T07:13:48;23.40;90.40
27803;DHT22;15182;48.174;11.562;2023-05-23T07:16:27;23.50;90.50
27803;DHT22;15182;48.174;11.562;2023-05-23T07:19:06;23.60;90.50
27803;DHT22;15182;48.174;11.562;2023-05-23T07:21:41;23.70;90.50
27803;DHT22;15182;48.174;11.562;2023-05-23T07:24:09;23.70;90.20
27803;DHT22;15182;48.174;11.562;2023-05-23T07:26:37;23.80;90.10
27803;DHT22;15182;48.174;11.562;2023-05-23T07:29:05;23.80;90.00
27803;DHT22;15182;48.174;11.562;2023-05-23T07:31:33;23.80;90.00
27803;DHT22;15182;48.174;11.562;2023-05-23T07:34:01;23.80;90.00
27803;DHT22;15182;48.174;11.562;2023-05-23T07:36:38;23.80;90.00
27803;DHT22;15182;48.174;11.562;2023-05-23T07:39:10;23.80;90.00
27803;DHT22;15182;48.174;11.562;2023-05-23T07:41:38;23.80;90.00
27803;DHT22;15182;48.174;11.562;2023-05-23T07:44:06;23.80;90.00
27803;DHT22;15182;48.174;11.562;2023-05-23T07:46:34;23.90;90.10
27803;DHT22;15182;48.174;11.562;2023-05-23T07:49:02;23.80;90.00
27803;DHT22;15182;48.174;11.562;2023-05-23T07:51:30;23.80;90.00
27803;DHT22;15182;48.174;11.562;2023-05-23T07:53:59;23.80;90.00
27803;DHT22;15182;48.174;11.562;2023-05-23T07:56:28;23.80;90.10
27803;DHT22;15182;48.174;11.562;2023-05-23T07:58:56;23.80;90.20
27803;DHT22;15182;48.174;11.562;2023-05-23T08:01:24;23.80;90.50
27803;DHT22;15182;48.174;11.562;2023-05-23T08:04:06;23.70;90.10
27803;DHT22;15182;48.174;11.562;2023-05-23T08:06:39;23.70;90.00
27803;DHT22;15182;48.174;11.562;2023-05-23T08:09:09;23.70;90.10
27803;DHT22;15182;48.174;11.562;2023-05-23T08:11:43;23.70;90.10
27803;DHT22;15182;48.174;11.562;2023-05-23T08:14:11;23.60;90.20
27803;DHT22;15182;48.174;11.562;2023-05-23T08:16:38;23.60;90.20
27803;DHT22;15182;48.174;11.562;2023-05-23T08:19:11;23.60;90.20
27803;DHT22;15182;48.174;11.562;2023-05-23T08:21:39;23.60;90.30
27803;DHT22;15182;48.174;11.562;2023-05-23T08:24:08;23.60;90.40
27803;DHT22;15182;48.174;11.562;2023-05-23T08:26:37;23.60;90.40
27803;DHT22;15182;48.174;11.562;2023-05-23T08:29:08;23.70;90.40
27803;DHT22;15182;48.174;11.562;2023-05-23T08:31:36;23.70;90.30
27803;DHT22;15182;48.174;11.562;2023-05-23T08:34:06;23.70;90.30
27803;DHT22;15182;48.174;11.562;2023-05-23T08:36:36;23.70;90.50
27803;DHT22;15182;48.174;11.562;2023-05-23T08:39:07;23.70;90.40
27803;DHT22;15182;48.174;11.562;2023-05-23T08:41:40;23.70;90.40
27803;DHT22;15182;48.174;11.562;2023-05-23T08:44:12;23.70;90.40
27803;DHT22;15182;48.174;11.562;2023-05-23T08:46:55;23.70;90.40
27803;DHT22;15182;48.174;11.562;2023-05-23T08:49:40;23.70;90.30
27803;DHT22;15182;48.174;11.562;2023-05-23T08:52:11;23.70;90.30
27803;DHT22;15182;48.174;11.562;2023-05-23T08:54:43;23.70;90.40
27803;DHT22;15182;48.174;11.562;2023-05-23T08:57:13;23.70;90.40
27803;DHT22;15182;48.174;11.562;2023-05-23T08:59:47;23.80;90.40
27803;DHT22;15182;48.174;11.562;2023-05-23T09:02:16;23.70;90.40
27803;DHT22;15182;48.174;11.562;2023-05-23T09:04:46;23.80;90.40
27803;DHT22;15182;48.174;11.562;2023-05-23T09:07:18;23.70;90.30
27803;DHT22;15182;48.174;11.562;2023-05-23T09:09:48;23.80;90.40
27803;DHT22;15182;48.174;11.562;2023-05-23T09:12:16;23.80;90.40
27803;DHT22;15182;48.174;11.562;2023-05-23T09:14:49;23.80;90.50
27803;DHT22;15182;48.174;11.562;2023-05-23T09:17:18;23.80;90.60
27803;DHT22;15182;48.174;11.562;2023-05-23T09:19:47;23.80;90.90
27803;DHT22;15182;48.174;11.562;2023-05-23T09:22:25;23.80;90.60
27803;DHT22;15182;48.174;11.562;2023-05-23T09:25:08;23.70;90.50
27803;DHT22;15182;48.174;11.562;2023-05-23T09:27:39;23.70;90.60
27803;DHT22;15182;48.174;11.562;2023-05-23T09:30:10;23.70;90.60
27803;DHT22;15182;48.174;11.562;2023-05-23T09:32:38;23.70;90.70
27803;DHT22;15182;48.174;11.562;2023-05-23T09:35:08;23.70;90.60
27803;DHT22;15182;48.174;11.562;2023-05-23T09:37:42;23.70;90.60
27803;DHT22;15182;48.174;11.562;2023-05-23T09:40:13;23.80;90.60
27803;DHT22;15182;48.174;11.562;2023-05-23T09:42:52;23.80;90.70
27803;DHT22;15182;48.174;11.562;2023-05-23T09:45:28;23.80;90.50
27803;DHT22;15182;48.174;11.562;2023-05-23T09:47:57;23.80;90.50
27803;DHT22;15182;48.174;11.562;2023-05-23T09:50:30;23.80;90.40
27803;DHT22;15182;48.174;11.562;2023-05-23T09:52:59;23.80;90.30
27803;DHT22;15182;48.174;11.562;2023-05-23T09:55:27;23.80;90.20
27803;DHT22;15182;48.174;11.562;2023-05-23T09:57:57;23.80;90.30
27803;DHT22;15182;48.174;11.562;2023-05-23T10:00:27;23.80;90.40
27803;DHT22;15182;48.174;11.562;2023-05-23T10:03:04;23.70;90.30
27803;DHT22;15182;48.174;11.562;2023-05-23T10:05:40;23.70;90.50
27803;DHT22;15182;48.174;11.562;2023-05-23T10:08:13;23.70;90.60
27803;DHT22;15182;48.174;11.562;2023-05-23T10:14:15;23.70;90.70
27803;DHT22;15182;48.174;11.562;2023-05-23T10:16:52;23.60;90.70
27803;DHT22;15182;48.174;11.562;2023-05-23T10:19:24;23.60;90.80
27803;DHT22;15182;48.174;11.562;2023-05-23T10:21:57;23.60;90.70
27803;DHT22;15182;48.174;11.562;2023-05-23T10:24:26;23.60;90.80
27803;DHT22;15182;48.174;11.562;2023-05-23T10:26:54;23.60;90.90
27803;DHT22;15182;48.174;11.562;2023-05-23T10:29:23;23.70;91.00
27803;DHT22;15182;48.174;11.562;2023-05-23T10:31:53;23.80;91.20
27803;DHT22;15182;48.174;11.562;2023-05-23T10:34:26;23.90;91.20
27803;DHT22;15182;48.174;11.562;2023-05-23T10:36:59;24.00;91.20
27803;DHT22;15182;48.174;11.562;2023-05-23T10:39:39;24.20;90.90
27803;DHT22;15182;48.174;11.562;2023-05-23T10:42:17;24.30;90.60
27803;DHT22;15182;48.174;11.562;2023-05-23T10:44:46;24.40;90.40
27803;DHT22;15182;48.174;11.562;2023-05-23T10:47:25;24.40;90.30
27803;DHT22;15182;48.174;11.562;2023-05-23T10:49:54;24.40;90.40
27803;DHT22;15182;48.174;11.562;2023-05-23T10:52:25;24.40;90.90
27803;DHT22;15182;48.174;11.562;2023-05-23T10:54:56;24.50;90.50
27803;DHT22;15182;48.174;11.562;2023-05-23T10:57:30;24.60;90.20
27803;DHT22;15182;48.174;11.562;2023-05-23T19:53:19;23.70;74.90
27803;DHT22;15182;48.174;11.562;2023-05-23T19:55:48;23.60;75.10
27803;DHT22;15182;48.174;11.562;2023-05-23T19:58:15;23.60;75.20
27803;DHT22;15182;48.174;11.562;2023-05-23T20:00:44;23.60;75.20
27803;DHT22;15182;48.174;11.562;2023-05-23T20:03:12;23.60;75.30
27803;DHT22;15182;48.174;11.562;2023-05-23T20:05:40;23.60;75.30
27803;DHT22;15182;48.174;11.562;2023-05-23T20:08:07;23.60;75.30
27803;DHT22;15182;48.174;11.562;2023-05-23T20:10:36;23.50;75.20
27803;DHT22;15182;48.174;11.562;2023-05-23T20:13:04;23.50;75.40
27803;DHT22;15182;48.174;11.562;2023-05-23T20:15:32;23.50;75.40
27803;DHT22;15182;48.174;11.562;2023-05-23T20:18:00;23.50;75.50
27803;DHT22;15182;48.174;11.562;2023-05-23T20:27:59;23.40;76.40
27803;DHT22;15182;48.174;11.562;2023-05-23T20:30:26;23.40;75.60
27803;DHT22;15182;48.174;11.562;2023-05-23T20:32:54;23.40;75.60
27803;DHT22;15182;48.174;11.562;2023-05-23T20:35:21;23.40;75.60
27803;DHT22;15182;48.174;11.562;2023-05-23T20:37:48;23.40;75.60
27803;DHT22;15182;48.174;11.562;2023-05-23T20:40:17;23.30;75.70
27803;DHT22;15182;48.174;11.562;2023-05-23T20:42:44;23.30;75.70
27803;DHT22;15182;48.174;11.562;2023-05-23T20:45:12;23.30;75.70
27803;DHT22;15182;48.174;11.562;2023-05-23T20:52:45;23.20;76.00
27803;DHT22;15182;48.174;11.562;2023-05-23T20:55:12;23.20;76.10
27803;DHT22;15182;48.174;11.562;2023-05-23T20:57:40;23.20;76.20
27803;DHT22;15182;48.174;11.562;2023-05-23T21:00:08;23.10;76.30
27803;DHT22;15182;48.174;11.562;2023-05-23T21:02:38;23.10;76.40
27803;DHT22;15182;48.174;11.562;2023-05-23T21:05:06;23.10;76.50
27803;DHT22;15182;48.174;11.562;2023-05-23T21:07:34;23.00;76.50
27803;DHT22;15182;48.174;11.562;2023-05-23T21:10:03;23.00;76.60
27803;DHT22;15182;48.174;11.562;2023-05-23T21:17:36;23.00;76.90
27803;DHT22;15182;48.174;11.562;2023-05-23T21:20:05;22.90;76.80
27803;DHT22;15182;48.174;11.562;2023-05-23T21:22:32;22.90;77.00
27803;DHT22;15182;48.174;11.562;2023-05-23T21:25:00;22.80;77.00
27803;DHT22;15182;48.174;11.562;2023-05-23T21:27:27;22.80;77.20
27803;DHT22;15182;48.174;11.562;2023-05-23T21:29:54;22.80;77.30
27803;DHT22;15182;48.174;11.562;2023-05-23T21:32:21;22.70;77.50
27803;DHT22;15182;48.174;11.562;2023-05-23T21:34:50;22.70;77.60
27803;DHT22;15182;48.174;11.562;2023-05-23T21:42:22;22.60;78.00
27803;DHT22;15182;48.174;11.562;2023-05-23T21:44:50;22.50;78.10
27803;DHT22;15182;48.174;11.562;2023-05-23T21:47:17;22.50;78.20
27803;DHT22;15182;48.174;11.562;2023-05-23T21:49:46;22.50;78.40
27803;DHT22;15182;48.174;11.562;2023-05-23T21:52:13;22.50;78.50
27803;DHT22;15182;48.174;11.562;2023-05-23T21:54:40;22.40;78.50
27803;DHT22;15182;48.174;11.562;2023-05-23T21:57:08;22.40;78.70
27803;DHT22;15182;48.174;11.562;2023-05-23T21:59:36;22.40;78.90
27803;DHT22;15182;48.174;11.562;2023-05-23T22:09:34;22.30;79.10
27803;DHT22;15182;48.174;11.562;2023-05-23T22:12:02;22.20;79.40
27803;DHT22;15182;48.174;11.562;2023-05-23T22:14:30;22.20;79.60
27803;DHT22;15182;48.174;11.562;2023-05-23T22:16:57;22.20;79.70
27803;DHT22;15182;48.174;11.562;2023-05-23T22:19:27;22.10;79.70
27803;DHT22;15182;48.174;11.562;2023-05-23T22:21:54;22.10;79.80
27803;DHT22;15182;48.174;11.562;2023-05-23T22:24:21;22.10;80.00
27803;DHT22;15182;48.174;11.562;2023-05-23T22:26:51;22.00;80.10
27803;DHT22;15182;48.174;11.562;2023-05-23T22:34:23;21.90;80.40
27803;DHT22;15182;48.174;11.562;2023-05-23T22:36:50;21.90;80.50
27803;DHT22;15182;48.174;11.562;2023-05-23T22:39:17;21.80;80.60
27803;DHT22;15182;48.174;11.562;2023-05-23T22:41:45;21.80;80.70
27803;DHT22;15182;48.174;11.562;2023-05-23T22:44:12;21.80;80.80
27803;DHT22;15182;48.174;11.562;2023-05-23T22:46:39;21.70;80.80
27803;DHT22;15182;48.174;11.562;2023-05-23T22:49:07;21.70;80.90
27803;DHT22;15182;48.174;11.562;2023-05-23T22:51:36;21.70;81.00
27803;DHT22;15182;48.174;11.562;2023-05-23T23:01:29;21.60;81.40
27803;DHT22;15182;48.174;11.562;2023-05-23T23:03:56;21.50;81.60
27803;DHT22;15182;48.174;11.562;2023-05-23T23:06:24;21.50;81.60
27803;DHT22;15182;48.174;11.562;2023-05-23T23:08:51;21.50;81.70
27803;DHT22;15182;48.174;11.562;2023-05-23T23:11:19;21.40;81.70
27803;DHT22;15182;48.174;11.562;2023-05-23T23:13:46;21.40;81.70
27803;DHT22;15182;48.174;11.562;2023-05-23T23:16:13;21.40;81.70
27803;DHT22;15182;48.174;11.562;2023-05-23T23:18:45;21.40;81.70
27803;DHT22;15182;48.174;11.562;2023-05-23T23:26:18;21.40;81.70
27803;DHT22;15182;48.174;11.562;2023-05-23T23:28:45;21.30;81.70
27803;DHT22;15182;48.174;11.562;2023-05-23T23:31:12;21.30;81.60
27803;DHT22;15182;48.174;11.562;2023-05-23T23:33:39;21.30;81.70
27803;DHT22;15182;48.174;11.562;2023-05-23T23:36:06;21.20;81.70
27803;DHT22;15182;48.174;11.562;2023-05-23T23:38:34;21.20;81.70
27803;DHT22;15182;48.174;11.562;2023-05-23T23:41:03;21.30;81.70
27803;DHT22;15182;48.174;11.562;2023-05-23T23:43:31;21.20;81.70
27803;DHT22;15182;48.174;11.562;2023-05-23T23:51:03;21.20;81.80
27803;DHT22;15182;48.174;11.562;2023-05-23T23:53:32;21.10;81.80
27803;DHT22;15182;48.174;11.562;2023-05-23T23:55:59;21.10;81.80
27803;DHT22;15182;48.174;11.562;2023-05-23T23:58:26;21.10;81.90
